Terminal Aerodrome Forecast
Issued by NWS

Home | Current Version | Previous Version | Text Only | Print | Product List | Glossary On
Versions: 1 2 3 4 5 6 7 8 9 10 11 12
000
FTUS42 KGSP 282320
TAFAND
TAF
KAND 282320Z 2900/2924 12005KT P6SM FEW250
     FM290500 VRB02KT P6SM BKN050
     FM291100 12003KT P6SM SCT050
     FM291700 12006KT P6SM BKN040 PROB30 2922/2924 4SM -SHRA OVC025=

USA.gov is the U.S. government's official web portal to all federal, state and local government web resources and services.